sensor_id;sensor_type;location;lat;lon;timestamp;temperature;humidity
27266;DHT22;14766;51.380;13.762;2023-08-31T00:02:04;19.30;59.40
27266;DHT22;14766;51.380;13.762;2023-08-31T00:04:31;19.30;59.40
27266;DHT22;14766;51.380;13.762;2023-08-31T00:06:58;19.30;59.40
27266;DHT22;14766;51.380;13.762;2023-08-31T00:09:25;19.30;59.40
27266;DHT22;14766;51.380;13.762;2023-08-31T00:11:53;19.30;59.40
27266;DHT22;14766;51.380;13.762;2023-08-31T00:14:21;19.40;59.50
27266;DHT22;14766;51.380;13.762;2023-08-31T00:16:49;19.40;59.50
27266;DHT22;14766;51.380;13.762;2023-08-31T00:19:17;19.40;59.40
27266;DHT22;14766;51.380;13.762;2023-08-31T00:21:44;19.40;59.50
27266;DHT22;14766;51.380;13.762;2023-08-31T00:24:11;19.40;59.40
27266;DHT22;14766;51.380;13.762;2023-08-31T00:26:38;19.50;59.50
27266;DHT22;14766;51.380;13.762;2023-08-31T00:29:09;19.50;59.30
27266;DHT22;14766;51.380;13.762;2023-08-31T00:31:37;19.50;59.40
27266;DHT22;14766;51.380;13.762;2023-08-31T00:34:05;19.50;59.30
27266;DHT22;14766;51.380;13.762;2023-08-31T00:36:33;19.50;59.20
27266;DHT22;14766;51.380;13.762;2023-08-31T00:39:04;19.50;59.10
27266;DHT22;14766;51.380;13.762;2023-08-31T00:41:32;19.50;59.10
27266;DHT22;14766;51.380;13.762;2023-08-31T00:43:59;19.50;59.00
27266;DHT22;14766;51.380;13.762;2023-08-31T00:46:26;19.50;59.00
27266;DHT22;14766;51.380;13.762;2023-08-31T00:48:54;19.60;58.90
27266;DHT22;14766;51.380;13.762;2023-08-31T00:51:22;19.50;59.00
27266;DHT22;14766;51.380;13.762;2023-08-31T00:53:52;19.60;59.00
27266;DHT22;14766;51.380;13.762;2023-08-31T00:56:22;19.50;58.80
27266;DHT22;14766;51.380;13.762;2023-08-31T00:58:49;19.50;58.80
27266;DHT22;14766;51.380;13.762;2023-08-31T01:09:43;19.60;58.40
27266;DHT22;14766;51.380;13.762;2023-08-31T01:12:19;19.60;58.20
27266;DHT22;14766;51.380;13.762;2023-08-31T01:14:57;19.60;58.20
27266;DHT22;14766;51.380;13.762;2023-08-31T01:17:28;19.60;58.30
27266;DHT22;14766;51.380;13.762;2023-08-31T01:19:58;19.60;58.20
27266;DHT22;14766;51.380;13.762;2023-08-31T01:25:03;19.50;58.20
27266;DHT22;14766;51.380;13.762;2023-08-31T01:27:32;19.50;58.10
27266;DHT22;14766;51.380;13.762;2023-08-31T01:30:00;19.50;58.10
27266;DHT22;14766;51.380;13.762;2023-08-31T01:32:27;19.50;58.10
27266;DHT22;14766;51.380;13.762;2023-08-31T01:34:54;19.50;58.10
27266;DHT22;14766;51.380;13.762;2023-08-31T01:37:34;19.50;58.10
27266;DHT22;14766;51.380;13.762;2023-08-31T01:43:02;19.50;58.10
27266;DHT22;14766;51.380;13.762;2023-08-31T01:45:30;19.40;58.00
27266;DHT22;14766;51.380;13.762;2023-08-31T01:47:58;19.40;58.00
27266;DHT22;14766;51.380;13.762;2023-08-31T01:50:26;19.40;58.10
27266;DHT22;14766;51.380;13.762;2023-08-31T01:52:53;19.40;58.10
27266;DHT22;14766;51.380;13.762;2023-08-31T01:55:20;19.40;58.10
27266;DHT22;14766;51.380;13.762;2023-08-31T01:57:48;19.40;58.20
27266;DHT22;14766;51.380;13.762;2023-08-31T02:00:24;19.40;58.30
27266;DHT22;14766;51.380;13.762;2023-08-31T02:02:51;19.40;58.20
27266;DHT22;14766;51.380;13.762;2023-08-31T02:05:19;19.40;58.30
27266;DHT22;14766;51.380;13.762;2023-08-31T02:07:46;19.40;58.20
27266;DHT22;14766;51.380;13.762;2023-08-31T02:10:13;19.40;58.10
27266;DHT22;14766;51.380;13.762;2023-08-31T02:12:42;19.40;58.10
27266;DHT22;14766;51.380;13.762;2023-08-31T02:15:09;19.40;58.10
27266;DHT22;14766;51.380;13.762;2023-08-31T02:17:37;19.40;58.10
27266;DHT22;14766;51.380;13.762;2023-08-31T02:20:04;19.40;58.40
27266;DHT22;14766;51.380;13.762;2023-08-31T02:22:36;19.30;58.60
27266;DHT22;14766;51.380;13.762;2023-08-31T02:25:05;19.30;58.90
27266;DHT22;14766;51.380;13.762;2023-08-31T02:27:32;19.30;59.00
27266;DHT22;14766;51.380;13.762;2023-08-31T02:29:59;19.30;59.20
27266;DHT22;14766;51.380;13.762;2023-08-31T02:32:27;19.30;59.40
27266;DHT22;14766;51.380;13.762;2023-08-31T02:34:55;19.30;59.50
27266;DHT22;14766;51.380;13.762;2023-08-31T02:37:22;19.20;59.40
27266;DHT22;14766;51.380;13.762;2023-08-31T02:39:49;19.20;59.60
27266;DHT22;14766;51.380;13.762;2023-08-31T02:42:16;19.20;59.60
27266;DHT22;14766;51.380;13.762;2023-08-31T02:44:45;19.10;59.50
27266;DHT22;14766;51.380;13.762;2023-08-31T02:47:12;19.10;59.70
27266;DHT22;14766;51.380;13.762;2023-08-31T02:49:40;19.00;59.70
27266;DHT22;14766;51.380;13.762;2023-08-31T02:52:08;18.90;59.70
27266;DHT22;14766;51.380;13.762;2023-08-31T02:54:35;18.90;59.90
27266;DHT22;14766;51.380;13.762;2023-08-31T02:57:02;18.90;60.00
27266;DHT22;14766;51.380;13.762;2023-08-31T02:59:29;18.80;60.10
27266;DHT22;14766;51.380;13.762;2023-08-31T03:01:56;18.80;60.10
27266;DHT22;14766;51.380;13.762;2023-08-31T03:04:24;18.80;60.20
27266;DHT22;14766;51.380;13.762;2023-08-31T03:06:51;18.80;60.30
27266;DHT22;14766;51.380;13.762;2023-08-31T03:09:18;18.80;60.40
27266;DHT22;14766;51.380;13.762;2023-08-31T03:11:47;18.70;60.30
27266;DHT22;14766;51.380;13.762;2023-08-31T03:14:14;18.70;60.40
27266;DHT22;14766;51.380;13.762;2023-08-31T03:16:41;18.70;60.40
27266;DHT22;14766;51.380;13.762;2023-08-31T03:19:09;18.70;60.50
27266;DHT22;14766;51.380;13.762;2023-08-31T03:21:36;18.70;60.50
27266;DHT22;14766;51.380;13.762;2023-08-31T03:24:03;18.70;60.40
27266;DHT22;14766;51.380;13.762;2023-08-31T03:26:30;18.70;60.40
27266;DHT22;14766;51.380;13.762;2023-08-31T03:28:57;18.70;60.40
27266;DHT22;14766;51.380;13.762;2023-08-31T03:31:25;18.70;60.30
27266;DHT22;14766;51.380;13.762;2023-08-31T03:33:52;18.70;60.30
27266;DHT22;14766;51.380;13.762;2023-08-31T03:36:19;18.70;60.20
27266;DHT22;14766;51.380;13.762;2023-08-31T03:38:46;18.70;60.10
27266;DHT22;14766;51.380;13.762;2023-08-31T03:41:13;18.70;60.20
27266;DHT22;14766;51.380;13.762;2023-08-31T03:43:40;18.70;60.20
27266;DHT22;14766;51.380;13.762;2023-08-31T03:46:07;18.60;60.30
27266;DHT22;14766;51.380;13.762;2023-08-31T03:48:34;18.70;60.40
27266;DHT22;14766;51.380;13.762;2023-08-31T03:51:01;18.60;60.30
27266;DHT22;14766;51.380;13.762;2023-08-31T03:53:29;18.60;60.40
27266;DHT22;14766;51.380;13.762;2023-08-31T03:55:58;18.50;60.60
27266;DHT22;14766;51.380;13.762;2023-08-31T03:58:25;18.50;60.60
27266;DHT22;14766;51.380;13.762;2023-08-31T04:00:54;18.40;60.70
27266;DHT22;14766;51.380;13.762;2023-08-31T04:03:23;18.40;60.80
27266;DHT22;14766;51.380;13.762;2023-08-31T04:05:55;18.30;61.00
27266;DHT22;14766;51.380;13.762;2023-08-31T04:08:22;18.30;61.10
27266;DHT22;14766;51.380;13.762;2023-08-31T04:10:49;18.30;61.00
27266;DHT22;14766;51.380;13.762;2023-08-31T04:13:16;18.30;62.00
27266;DHT22;14766;51.380;13.762;2023-08-31T04:15:43;18.30;61.30
27266;DHT22;14766;51.380;13.762;2023-08-31T04:18:11;18.20;61.40
27266;DHT22;14766;51.380;13.762;2023-08-31T04:20:38;18.20;61.40
27266;DHT22;14766;51.380;13.762;2023-08-31T04:23:06;18.20;61.50
27266;DHT22;14766;51.380;13.762;2023-08-31T04:25:36;18.10;61.50
27266;DHT22;14766;51.380;13.762;2023-08-31T04:28:03;18.10;61.70
27266;DHT22;14766;51.380;13.762;2023-08-31T04:30:31;18.10;61.80
27266;DHT22;14766;51.380;13.762;2023-08-31T04:32:58;18.10;61.90
27266;DHT22;14766;51.380;13.762;2023-08-31T04:35:25;18.10;61.90
27266;DHT22;14766;51.380;13.762;2023-08-31T04:37:52;18.00;62.00
27266;DHT22;14766;51.380;13.762;2023-08-31T04:40:19;18.10;62.00
27266;DHT22;14766;51.380;13.762;2023-08-31T04:42:46;18.10;61.90
27266;DHT22;14766;51.380;13.762;2023-08-31T04:45:13;18.10;61.90
27266;DHT22;14766;51.380;13.762;2023-08-31T04:47:40;18.10;62.00
27266;DHT22;14766;51.380;13.762;2023-08-31T04:50:08;18.10;61.90
27266;DHT22;14766;51.380;13.762;2023-08-31T04:52:35;18.10;61.90
27266;DHT22;14766;51.380;13.762;2023-08-31T04:55:03;18.10;61.90
27266;DHT22;14766;51.380;13.762;2023-08-31T04:57:30;18.10;62.00
27266;DHT22;14766;51.380;13.762;2023-08-31T04:59:57;18.10;62.00
27266;DHT22;14766;51.380;13.762;2023-08-31T05:02:24;18.10;62.90
27266;DHT22;14766;51.380;13.762;2023-08-31T05:04:52;18.10;62.20
27266;DHT22;14766;51.380;13.762;2023-08-31T05:07:19;18.10;62.20
27266;DHT22;14766;51.380;13.762;2023-08-31T05:09:46;18.10;62.30
27266;DHT22;14766;51.380;13.762;2023-08-31T05:12:13;18.10;62.30
27266;DHT22;14766;51.380;13.762;2023-08-31T05:14:40;18.10;62.30
27266;DHT22;14766;51.380;13.762;2023-08-31T05:17:07;18.10;62.40
27266;DHT22;14766;51.380;13.762;2023-08-31T05:19:34;18.10;62.30
27266;DHT22;14766;51.380;13.762;2023-08-31T05:22:02;18.10;62.30
27266;DHT22;14766;51.380;13.762;2023-08-31T05:24:30;18.20;62.40
27266;DHT22;14766;51.380;13.762;2023-08-31T05:26:57;18.20;62.40
27266;DHT22;14766;51.380;13.762;2023-08-31T05:29:25;18.10;62.40
27266;DHT22;14766;51.380;13.762;2023-08-31T05:31:52;18.10;62.40
27266;DHT22;14766;51.380;13.762;2023-08-31T05:34:24;18.20;62.60
27266;DHT22;14766;51.380;13.762;2023-08-31T05:36:52;18.20;62.50
27266;DHT22;14766;51.380;13.762;2023-08-31T05:39:19;18.20;62.50
27266;DHT22;14766;51.380;13.762;2023-08-31T05:41:46;18.20;62.50
27266;DHT22;14766;51.380;13.762;2023-08-31T05:44:13;18.20;62.60
27266;DHT22;14766;51.380;13.762;2023-08-31T05:46:40;18.20;62.80
27266;DHT22;14766;51.380;13.762;2023-08-31T05:49:08;18.10;62.90
27266;DHT22;14766;51.380;13.762;2023-08-31T05:51:35;18.20;62.90
27266;DHT22;14766;51.380;13.762;2023-08-31T05:54:02;18.20;63.10
27266;DHT22;14766;51.380;13.762;2023-08-31T05:56:30;18.10;63.10
27266;DHT22;14766;51.380;13.762;2023-08-31T05:58:57;18.20;63.40
27266;DHT22;14766;51.380;13.762;2023-08-31T06:01:24;18.20;63.30
27266;DHT22;14766;51.380;13.762;2023-08-31T06:03:51;18.20;63.40
27266;DHT22;14766;51.380;13.762;2023-08-31T06:06:19;18.20;63.40
27266;DHT22;14766;51.380;13.762;2023-08-31T06:08:46;18.20;63.30
27266;DHT22;14766;51.380;13.762;2023-08-31T06:11:13;18.20;63.50
27266;DHT22;14766;51.380;13.762;2023-08-31T06:13:41;18.20;63.50
27266;DHT22;14766;51.380;13.762;2023-08-31T06:16:08;18.20;63.40
27266;DHT22;14766;51.380;13.762;2023-08-31T06:18:36;18.20;63.30
27266;DHT22;14766;51.380;13.762;2023-08-31T06:21:03;18.30;63.50
27266;DHT22;14766;51.380;13.762;2023-08-31T06:23:30;18.30;63.40
27266;DHT22;14766;51.380;13.762;2023-08-31T06:25:57;18.30;63.40
27266;DHT22;14766;51.380;13.762;2023-08-31T06:28:24;18.30;63.60
27266;DHT22;14766;51.380;13.762;2023-08-31T06:30:52;18.30;63.60
27266;DHT22;14766;51.380;13.762;2023-08-31T06:33:19;18.40;64.00
27266;DHT22;14766;51.380;13.762;2023-08-31T06:35:47;18.50;63.90
27266;DHT22;14766;51.380;13.762;2023-08-31T06:38:19;18.60;64.30
27266;DHT22;14766;51.380;13.762;2023-08-31T06:40:47;18.70;63.70
27266;DHT22;14766;51.380;13.762;2023-08-31T06:43:14;18.80;63.30
27266;DHT22;14766;51.380;13.762;2023-08-31T06:45:41;19.00;63.00
27266;DHT22;14766;51.380;13.762;2023-08-31T06:48:09;19.10;62.90
27266;DHT22;14766;51.380;13.762;2023-08-31T06:50:36;19.30;62.60
27266;DHT22;14766;51.380;13.762;2023-08-31T06:53:04;19.50;61.70
27266;DHT22;14766;51.380;13.762;2023-08-31T06:55:32;19.70;61.00
27266;DHT22;14766;51.380;13.762;2023-08-31T06:58:01;19.90;61.10
27266;DHT22;14766;51.380;13.762;2023-08-31T07:00:29;20.10;60.30
27266;DHT22;14766;51.380;13.762;2023-08-31T07:02:58;20.20;59.80
27266;DHT22;14766;51.380;13.762;2023-08-31T07:05:26;20.30;59.40
27266;DHT22;14766;51.380;13.762;2023-08-31T07:07:54;20.40;58.80
27266;DHT22;14766;51.380;13.762;2023-08-31T07:10:22;20.40;58.80
27266;DHT22;14766;51.380;13.762;2023-08-31T07:12:49;20.40;58.30
27266;DHT22;14766;51.380;13.762;2023-08-31T07:15:16;20.40;58.10
27266;DHT22;14766;51.380;13.762;2023-08-31T07:17:43;20.30;57.90
27266;DHT22;14766;51.380;13.762;2023-08-31T07:20:12;20.30;57.70
27266;DHT22;14766;51.380;13.762;2023-08-31T07:22:39;20.20;57.80
27266;DHT22;14766;51.380;13.762;2023-08-31T07:25:09;20.20;57.70
27266;DHT22;14766;51.380;13.762;2023-08-31T07:27:36;20.20;57.70
27266;DHT22;14766;51.380;13.762;2023-08-31T07:30:05;20.20;58.50
27266;DHT22;14766;51.380;13.762;2023-08-31T07:32:32;20.20;58.90
27266;DHT22;14766;51.380;13.762;2023-08-31T07:34:59;20.30;58.50
27266;DHT22;14766;51.380;13.762;2023-08-31T07:37:27;20.50;58.30
27266;DHT22;14766;51.380;13.762;2023-08-31T07:39:54;20.70;58.50
27266;DHT22;14766;51.380;13.762;2023-08-31T07:42:21;20.90;58.60
27266;DHT22;14766;51.380;13.762;2023-08-31T07:44:48;21.20;57.60
27266;DHT22;14766;51.380;13.762;2023-08-31T07:47:15;21.40;57.70
27266;DHT22;14766;51.380;13.762;2023-08-31T07:49:42;21.80;57.00
27266;DHT22;14766;51.380;13.762;2023-08-31T07:52:11;22.10;56.00
27266;DHT22;14766;51.380;13.762;2023-08-31T07:54:38;22.40;54.90
27266;DHT22;14766;51.380;13.762;2023-08-31T07:57:05;22.70;53.20
27266;DHT22;14766;51.380;13.762;2023-08-31T07:59:32;22.80;52.30
27266;DHT22;14766;51.380;13.762;2023-08-31T08:01:59;22.80;51.90
27266;DHT22;14766;51.380;13.762;2023-08-31T08:04:27;22.80;51.90
27266;DHT22;14766;51.380;13.762;2023-08-31T08:06:54;22.80;51.80
27266;DHT22;14766;51.380;13.762;2023-08-31T08:09:21;22.90;50.70
27266;DHT22;14766;51.380;13.762;2023-08-31T08:11:48;22.90;50.30
27266;DHT22;14766;51.380;13.762;2023-08-31T08:14:15;22.90;50.00
27266;DHT22;14766;51.380;13.762;2023-08-31T08:16:42;22.90;49.50
27266;DHT22;14766;51.380;13.762;2023-08-31T08:19:10;23.00;49.90
27266;DHT22;14766;51.380;13.762;2023-08-31T08:21:37;23.10;49.90
27266;DHT22;14766;51.380;13.762;2023-08-31T08:24:04;23.20;49.90
27266;DHT22;14766;51.380;13.762;2023-08-31T08:26:31;23.20;48.80
27266;DHT22;14766;51.380;13.762;2023-08-31T08:28:58;23.30;49.50
27266;DHT22;14766;51.380;13.762;2023-08-31T08:31:25;23.40;48.40
27266;DHT22;14766;51.380;13.762;2023-08-31T08:33:52;23.40;46.70
27266;DHT22;14766;51.380;13.762;2023-08-31T08:36:19;23.30;47.30
27266;DHT22;14766;51.380;13.762;2023-08-31T08:38:47;23.20;47.30
27266;DHT22;14766;51.380;13.762;2023-08-31T08:41:14;23.10;47.30
27266;DHT22;14766;51.380;13.762;2023-08-31T08:43:47;23.00;47.00
27266;DHT22;14766;51.380;13.762;2023-08-31T08:46:14;22.80;46.30
27266;DHT22;14766;51.380;13.762;2023-08-31T08:48:42;22.70;47.00
27266;DHT22;14766;51.380;13.762;2023-08-31T08:51:18;22.60;47.00
27266;DHT22;14766;51.380;13.762;2023-08-31T08:53:46;22.40;47.90
27266;DHT22;14766;51.380;13.762;2023-08-31T08:56:18;22.40;48.80
27266;DHT22;14766;51.380;13.762;2023-08-31T08:58:45;22.40;47.70
27266;DHT22;14766;51.380;13.762;2023-08-31T09:01:12;22.40;48.00
27266;DHT22;14766;51.380;13.762;2023-08-31T09:03:39;22.40;49.20
27266;DHT22;14766;51.380;13.762;2023-08-31T09:06:06;22.50;49.60
27266;DHT22;14766;51.380;13.762;2023-08-31T09:08:35;22.70;49.70
27266;DHT22;14766;51.380;13.762;2023-08-31T09:11:04;23.00;49.70
27266;DHT22;14766;51.380;13.762;2023-08-31T09:13:32;23.40;47.30
27266;DHT22;14766;51.380;13.762;2023-08-31T09:16:00;23.80;46.70
27266;DHT22;14766;51.380;13.762;2023-08-31T09:18:31;24.10;46.80
27266;DHT22;14766;51.380;13.762;2023-08-31T09:21:00;24.40;46.10
27266;DHT22;14766;51.380;13.762;2023-08-31T09:23:27;24.80;45.70
27266;DHT22;14766;51.380;13.762;2023-08-31T09:25:55;25.20;44.30
27266;DHT22;14766;51.380;13.762;2023-08-31T09:28:24;25.50;44.20
27266;DHT22;14766;51.380;13.762;2023-08-31T09:31:05;25.80;41.10
27266;DHT22;14766;51.380;13.762;2023-08-31T09:33:36;26.00;40.30
27266;DHT22;14766;51.380;13.762;2023-08-31T09:36:06;26.00;39.60
27266;DHT22;14766;51.380;13.762;2023-08-31T09:38:44;25.80;39.00
27266;DHT22;14766;51.380;13.762;2023-08-31T09:41:12;25.60;38.60
27266;DHT22;14766;51.380;13.762;2023-08-31T09:43:40;25.30;38.50
27266;DHT22;14766;51.380;13.762;2023-08-31T09:46:08;25.00;39.50
27266;DHT22;14766;51.380;13.762;2023-08-31T09:48:39;24.80;40.40
27266;DHT22;14766;51.380;13.762;2023-08-31T09:51:10;24.60;41.20
27266;DHT22;14766;51.380;13.762;2023-08-31T09:53:38;24.50;41.40
27266;DHT22;14766;51.380;13.762;2023-08-31T09:56:06;24.50;41.90
27266;DHT22;14766;51.380;13.762;2023-08-31T09:58:36;24.60;42.80
27266;DHT22;14766;51.380;13.762;2023-08-31T10:01:03;24.80;42.60
27266;DHT22;14766;51.380;13.762;2023-08-31T10:03:50;25.00;42.20
27266;DHT22;14766;51.380;13.762;2023-08-31T10:06:18;25.20;39.60
27266;DHT22;14766;51.380;13.762;2023-08-31T10:08:46;25.20;38.50
27266;DHT22;14766;51.380;13.762;2023-08-31T10:11:14;25.20;38.90
27266;DHT22;14766;51.380;13.762;2023-08-31T10:13:42;25.10;38.70
27266;DHT22;14766;51.380;13.762;2023-08-31T10:16:11;24.90;39.30
27266;DHT22;14766;51.380;13.762;2023-08-31T10:18:39;24.60;40.00
27266;DHT22;14766;51.380;13.762;2023-08-31T10:21:07;24.40;40.70
27266;DHT22;14766;51.380;13.762;2023-08-31T10:23:34;24.20;41.40
27266;DHT22;14766;51.380;13.762;2023-08-31T10:26:05;24.00;42.00
27266;DHT22;14766;51.380;13.762;2023-08-31T10:28:39;23.80;43.70
27266;DHT22;14766;51.380;13.762;2023-08-31T10:31:17;23.70;44.30
27266;DHT22;14766;51.380;13.762;2023-08-31T10:34:01;23.70;44.10
27266;DHT22;14766;51.380;13.762;2023-08-31T10:39:12;24.10;43.40
27266;DHT22;14766;51.380;13.762;2023-08-31T10:41:40;24.30;43.10
27266;DHT22;14766;51.380;13.762;2023-08-31T10:44:24;24.50;42.20
27266;DHT22;14766;51.380;13.762;2023-08-31T10:46:52;24.80;41.20
27266;DHT22;14766;51.380;13.762;2023-08-31T10:49:23;24.90;38.90
27266;DHT22;14766;51.380;13.762;2023-08-31T10:51:58;24.90;38.20
27266;DHT22;14766;51.380;13.762;2023-08-31T10:54:55;24.80;44.50
27266;DHT22;14766;51.380;13.762;2023-08-31T10:57:32;24.60;47.60
27266;DHT22;14766;51.380;13.762;2023-08-31T11:00:03;24.30;47.50
27266;DHT22;14766;51.380;13.762;2023-08-31T11:02:42;24.00;47.90
27266;DHT22;14766;51.380;13.762;2023-08-31T11:05:14;23.70;48.70
27266;DHT22;14766;51.380;13.762;2023-08-31T11:07:49;23.50;49.90
27266;DHT22;14766;51.380;13.762;2023-08-31T11:10:21;23.30;49.00
27266;DHT22;14766;51.380;13.762;2023-08-31T11:12:53;23.10;50.70
27266;DHT22;14766;51.380;13.762;2023-08-31T11:15:22;22.90;51.10
27266;DHT22;14766;51.380;13.762;2023-08-31T11:18:08;22.80;51.90
27266;DHT22;14766;51.380;13.762;2023-08-31T11:20:36;22.60;51.70
27266;DHT22;14766;51.380;13.762;2023-08-31T11:23:04;22.50;53.50
27266;DHT22;14766;51.380;13.762;2023-08-31T11:25:31;22.40;53.80
27266;DHT22;14766;51.380;13.762;2023-08-31T11:28:00;22.40;53.70
27266;DHT22;14766;51.380;13.762;2023-08-31T11:30:29;22.40;52.30
27266;DHT22;14766;51.380;13.762;2023-08-31T11:33:08;22.30;49.20
27266;DHT22;14766;51.380;13.762;2023-08-31T11:35:41;22.10;49.90
27266;DHT22;14766;51.380;13.762;2023-08-31T11:38:10;21.90;50.60
27266;DHT22;14766;51.380;13.762;2023-08-31T11:40:37;21.70;52.30
27266;DHT22;14766;51.380;13.762;2023-08-31T11:43:05;21.70;52.20
27266;DHT22;14766;51.380;13.762;2023-08-31T11:45:39;21.70;51.90
27266;DHT22;14766;51.380;13.762;2023-08-31T11:48:14;21.70;52.20
27266;DHT22;14766;51.380;13.762;2023-08-31T11:50:43;21.70;50.90
27266;DHT22;14766;51.380;13.762;2023-08-31T11:53:10;21.70;51.60
27266;DHT22;14766;51.380;13.762;2023-08-31T11:55:49;21.80;52.20
27266;DHT22;14766;51.380;13.762;2023-08-31T11:58:17;21.80;50.40
27266;DHT22;14766;51.380;13.762;2023-08-31T12:00:44;22.00;48.80
27266;DHT22;14766;51.380;13.762;2023-08-31T12:03:13;22.00;47.90
27266;DHT22;14766;51.380;13.762;2023-08-31T12:05:50;22.20;48.20
27266;DHT22;14766;51.380;13.762;2023-08-31T12:08:25;22.30;48.00
27266;DHT22;14766;51.380;13.762;2023-08-31T12:10:53;22.40;48.00
27266;DHT22;14766;51.380;13.762;2023-08-31T12:13:20;22.50;47.70
27266;DHT22;14766;51.380;13.762;2023-08-31T12:15:52;22.60;46.50
27266;DHT22;14766;51.380;13.762;2023-08-31T12:18:20;22.70;45.80
27266;DHT22;14766;51.380;13.762;2023-08-31T12:20:51;22.80;45.60
27266;DHT22;14766;51.380;13.762;2023-08-31T12:23:19;22.90;46.40
27266;DHT22;14766;51.380;13.762;2023-08-31T12:25:53;23.00;44.60
27266;DHT22;14766;51.380;13.762;2023-08-31T12:28:22;23.00;44.70
27266;DHT22;14766;51.380;13.762;2023-08-31T12:30:51;23.10;45.40
27266;DHT22;14766;51.380;13.762;2023-08-31T12:33:19;23.10;46.50
27266;DHT22;14766;51.380;13.762;2023-08-31T12:35:47;23.20;46.60
27266;DHT22;14766;51.380;13.762;2023-08-31T12:38:14;23.20;45.60
27266;DHT22;14766;51.380;13.762;2023-08-31T12:40:41;23.30;46.40
27266;DHT22;14766;51.380;13.762;2023-08-31T12:43:08;23.40;45.10
27266;DHT22;14766;51.380;13.762;2023-08-31T12:45:36;23.40;44.70
27266;DHT22;14766;51.380;13.762;2023-08-31T12:48:05;23.40;44.80
27266;DHT22;14766;51.380;13.762;2023-08-31T12:50:32;23.40;44.50
27266;DHT22;14766;51.380;13.762;2023-08-31T12:53:00;23.40;45.10
27266;DHT22;14766;51.380;13.762;2023-08-31T12:55:27;23.40;45.50
27266;DHT22;14766;51.380;13.762;2023-08-31T12:57:54;23.40;45.30
27266;DHT22;14766;51.380;13.762;2023-08-31T13:00:21;23.40;44.70
27266;DHT22;14766;51.380;13.762;2023-08-31T13:02:50;23.40;45.00
27266;DHT22;14766;51.380;13.762;2023-08-31T13:05:18;23.50;44.80
27266;DHT22;14766;51.380;13.762;2023-08-31T13:07:45;23.40;45.10
27266;DHT22;14766;51.380;13.762;2023-08-31T13:10:12;23.50;44.80
27266;DHT22;14766;51.380;13.762;2023-08-31T13:12:39;23.50;44.70
27266;DHT22;14766;51.380;13.762;2023-08-31T13:15:07;23.50;45.20
27266;DHT22;14766;51.380;13.762;2023-08-31T13:17:35;23.50;45.40
27266;DHT22;14766;51.380;13.762;2023-08-31T13:20:03;23.60;45.50
27266;DHT22;14766;51.380;13.762;2023-08-31T13:22:30;23.60;44.40
27266;DHT22;14766;51.380;13.762;2023-08-31T13:24:59;23.70;43.50
27266;DHT22;14766;51.380;13.762;2023-08-31T13:27:28;23.70;42.90
27266;DHT22;14766;51.380;13.762;2023-08-31T13:29:56;23.70;42.60
27266;DHT22;14766;51.380;13.762;2023-08-31T13:32:23;23.70;42.90
27266;DHT22;14766;51.380;13.762;2023-08-31T13:34:50;23.70;41.40
27266;DHT22;14766;51.380;13.762;2023-08-31T13:37:17;23.70;41.30
27266;DHT22;14766;51.380;13.762;2023-08-31T13:39:44;23.60;41.30
27266;DHT22;14766;51.380;13.762;2023-08-31T13:42:11;23.60;42.30
27266;DHT22;14766;51.380;13.762;2023-08-31T13:44:38;23.60;42.70
27266;DHT22;14766;51.380;13.762;2023-08-31T13:47:06;23.60;42.90
27266;DHT22;14766;51.380;13.762;2023-08-31T13:49:33;23.60;41.60
27266;DHT22;14766;51.380;13.762;2023-08-31T13:52:00;23.70;42.60
27266;DHT22;14766;51.380;13.762;2023-08-31T13:54:27;23.70;42.60
27266;DHT22;14766;51.380;13.762;2023-08-31T13:56:54;23.70;41.90
27266;DHT22;14766;51.380;13.762;2023-08-31T13:59:22;23.70;41.40
27266;DHT22;14766;51.380;13.762;2023-08-31T14:01:49;23.70;41.10
27266;DHT22;14766;51.380;13.762;2023-08-31T14:04:18;23.70;41.90
27266;DHT22;14766;51.380;13.762;2023-08-31T14:06:46;23.70;41.80
27266;DHT22;14766;51.380;13.762;2023-08-31T14:09:13;23.70;41.80
27266;DHT22;14766;51.380;13.762;2023-08-31T14:11:40;23.60;42.10
27266;DHT22;14766;51.380;13.762;2023-08-31T14:14:07;23.60;42.00
27266;DHT22;14766;51.380;13.762;2023-08-31T14:16:38;23.50;42.10
27266;DHT22;14766;51.380;13.762;2023-08-31T14:19:06;23.50;41.70
27266;DHT22;14766;51.380;13.762;2023-08-31T14:21:33;23.40;42.50
27266;DHT22;14766;51.380;13.762;2023-08-31T14:24:00;23.30;43.10
27266;DHT22;14766;51.380;13.762;2023-08-31T14:26:28;23.30;42.70
27266;DHT22;14766;51.380;13.762;2023-08-31T14:28:55;23.20;43.20
27266;DHT22;14766;51.380;13.762;2023-08-31T14:31:22;23.20;41.60
27266;DHT22;14766;51.380;13.762;2023-08-31T14:33:49;23.10;41.00
27266;DHT22;14766;51.380;13.762;2023-08-31T14:36:18;23.00;40.80
27266;DHT22;14766;51.380;13.762;2023-08-31T14:38:45;23.00;41.00
27266;DHT22;14766;51.380;13.762;2023-08-31T14:41:12;23.00;41.10
27266;DHT22;14766;51.380;13.762;2023-08-31T14:43:40;23.00;41.70
27266;DHT22;14766;51.380;13.762;2023-08-31T14:46:07;23.00;41.10
27266;DHT22;14766;51.380;13.762;2023-08-31T14:48:34;23.00;41.30
27266;DHT22;14766;51.380;13.762;2023-08-31T14:51:02;22.90;41.10
27266;DHT22;14766;51.380;13.762;2023-08-31T14:53:30;22.90;41.30
27266;DHT22;14766;51.380;13.762;2023-08-31T14:55:57;22.90;41.40
27266;DHT22;14766;51.380;13.762;2023-08-31T14:58:24;22.90;41.60
27266;DHT22;14766;51.380;13.762;2023-08-31T15:00:55;22.90;41.00
27266;DHT22;14766;51.380;13.762;2023-08-31T15:03:22;22.80;41.10
27266;DHT22;14766;51.380;13.762;2023-08-31T15:05:51;22.80;41.60
27266;DHT22;14766;51.380;13.762;2023-08-31T15:08:22;22.80;42.00
27266;DHT22;14766;51.380;13.762;2023-08-31T15:11:02;22.80;42.50
27266;DHT22;14766;51.380;13.762;2023-08-31T15:13:29;22.80;42.80
27266;DHT22;14766;51.380;13.762;2023-08-31T15:15:57;22.80;42.90
27266;DHT22;14766;51.380;13.762;2023-08-31T15:18:28;22.90;42.70
27266;DHT22;14766;51.380;13.762;2023-08-31T15:20:56;22.90;40.10
27266;DHT22;14766;51.380;13.762;2023-08-31T15:23:23;22.90;40.10
27266;DHT22;14766;51.380;13.762;2023-08-31T15:25:50;22.90;40.40
27266;DHT22;14766;51.380;13.762;2023-08-31T15:28:17;22.90;39.40
27266;DHT22;14766;51.380;13.762;2023-08-31T15:30:44;22.90;39.00
27266;DHT22;14766;51.380;13.762;2023-08-31T15:33:11;22.90;38.80
27266;DHT22;14766;51.380;13.762;2023-08-31T15:35:39;22.90;38.80
27266;DHT22;14766;51.380;13.762;2023-08-31T15:38:06;22.90;38.30
27266;DHT22;14766;51.380;13.762;2023-08-31T15:40:33;22.90;38.80